Time;durP1;ratioP1;P1;durP2;ratioP2;P2;SDS_P1;SDS_P2;PMS_P1;PMS_P2;Temp;Humidity;BMP_temperature;BMP_pressure;BME280_temperature;BME280_humidity;BME280_pressure;Samples;Min_cycle;Max_cycle;Signal;HPM_P1;HPM_P2
2022/02/21 00:00:07;;;;;;;2.10;0.60;;;;;;;;;;5137792;27;20122;-77
2022/02/21 00:02:34;;;;;;;0.90;0.40;;;;;;;;;;5136242;27;20075;-76
2022/02/21 00:05:00;;;;;;;1.10;0.35;;;;;;;;;;5136021;27;20134;-76
2022/02/21 00:07:27;;;;;;;2.60;0.40;;;;;;;;;;5136260;28;20099;-77
2022/02/21 00:09:54;;;;;;;2.40;0.50;;;;;;;;;;5136763;28;20126;-77
2022/02/21 00:12:20;;;;;;;5.03;0.40;;;;;;;;;;5137642;28;20340;-77
2022/02/21 00:14:47;;;;;;;1.27;0.28;;;;;;;;;;5136230;28;20081;-76
2022/02/21 00:17:15;;;;;;;2.33;0.30;;;;;;;;;;5134803;28;20078;-76
2022/02/21 00:19:41;;;;;;;2.25;0.73;;;;;;;;;;5135116;28;20138;-77
2022/02/21 00:22:08;;;;;;;3.95;1.52;;;;;;;;;;5135791;28;20066;-77
2022/02/21 00:24:34;;;;;;;1.55;0.40;;;;;;;;;;5135758;28;20082;-76
2022/02/21 00:27:01;;;;;;;3.55;0.50;;;;;;;;;;5136489;28;20078;-76
2022/02/21 00:29:28;;;;;;;1.52;0.38;;;;;;;;;;5138060;27;20459;-77
2022/02/21 00:31:54;;;;;;;1.70;0.40;;;;;;;;;;5139488;27;20062;-76
2022/02/21 00:34:22;;;;;;;2.28;0.25;;;;;;;;;;5139728;27;20102;-76
2022/02/21 00:36:49;;;;;;;0.85;0.20;;;;;;;;;;5140501;27;20126;-76
2022/02/21 00:39:15;;;;;;;1.73;0.40;;;;;;;;;;5139083;27;20483;-77
2022/02/21 00:41:42;;;;;;;1.50;0.57;;;;;;;;;;5141844;27;20084;-77
2022/02/21 00:44:08;;;;;;;2.08;0.52;;;;;;;;;;5141502;27;20121;-76
2022/02/21 00:46:35;;;;;;;0.32;0.10;;;;;;;;;;5140558;27;20131;-77
2022/02/21 00:49:03;;;;;;;11.15;3.45;;;;;;;;;;5140392;27;20098;-77
2022/02/21 00:51:31;;;;;;;0.95;0.55;;;;;;;;;;5140745;27;20464;-77
2022/02/21 00:54:04;;;;;;;1.75;0.65;;;;;;;;;;5140786;27;20122;-77
2022/02/21 00:56:31;;;;;;;1.35;0.50;;;;;;;;;;5141132;27;20455;-77
2022/02/21 00:58:57;;;;;;;2.10;0.40;;;;;;;;;;5140760;27;20074;-77
2022/02/21 01:01:24;;;;;;;1.50;0.60;;;;;;;;;;5140321;27;20074;-77
2022/02/21 01:03:50;;;;;;;0.88;0.40;;;;;;;;;;5139003;27;20505;-76
2022/02/21 01:06:19;;;;;;;3.42;1.30;;;;;;;;;;5139773;27;20122;-77
2022/02/21 01:08:46;;;;;;;2.03;0.57;;;;;;;;;;5140652;27;20049;-77
2022/02/21 01:11:13;;;;;;;4.18;0.60;;;;;;;;;;5140086;27;20126;-77
2022/02/21 01:13:40;;;;;;;2.72;0.50;;;;;;;;;;5140737;27;20127;-77
2022/02/21 01:16:07;;;;;;;1.58;0.45;;;;;;;;;;5140708;27;20121;-77
2022/02/21 01:18:34;;;;;;;1.73;0.50;;;;;;;;;;5139672;27;20081;-77
2022/02/21 01:21:02;;;;;;;1.42;0.55;;;;;;;;;;5136839;27;20090;-76
2022/02/21 01:23:29;;;;;;;2.53;0.50;;;;;;;;;;5139632;27;20121;-76
2022/02/21 01:25:56;;;;;;;2.72;0.50;;;;;;;;;;5140381;27;20073;-77
2022/02/21 01:28:23;;;;;;;2.72;1.25;;;;;;;;;;5141650;27;20073;-77
2022/02/21 01:30:49;;;;;;;0.88;0.40;;;;;;;;;;5141530;27;20131;-77
2022/02/21 01:33:17;;;;;;;3.42;0.65;;;;;;;;;;5140351;27;20077;-77
2022/02/21 01:35:43;;;;;;;2.72;0.80;;;;;;;;;;5139473;27;20042;-77
2022/02/21 01:38:10;;;;;;;1.98;0.50;;;;;;;;;;5139880;27;20131;-77
2022/02/21 01:40:36;;;;;;;3.22;0.68;;;;;;;;;;5139097;27;20066;-76
2022/02/21 01:43:04;;;;;;;2.38;0.75;;;;;;;;;;5140585;27;20046;-77
2022/02/21 01:45:31;;;;;;;1.65;0.50;;;;;;;;;;5140432;27;20070;-77
2022/02/21 01:47:57;;;;;;;2.67;0.50;;;;;;;;;;5140109;27;20078;-77
2022/02/21 01:50:24;;;;;;;2.38;0.90;;;;;;;;;;5139842;27;20074;-76
2022/02/21 01:52:51;;;;;;;3.97;0.95;;;;;;;;;;5140068;27;20075;-76
2022/02/21 01:55:17;;;;;;;1.95;0.43;;;;;;;;;;5138312;27;20098;-77
2022/02/21 01:57:48;;;;;;;2.25;0.52;;;;;;;;;;5140056;27;20043;-77
2022/02/21 02:00:19;;;;;;;0.82;0.50;;;;;;;;;;5140520;27;20043;-77
2022/02/21 02:02:46;;;;;;;2.63;0.73;;;;;;;;;;5142348;27;20043;-77
2022/02/21 02:05:13;;;;;;;1.95;1.00;;;;;;;;;;5140689;27;20047;-77
2022/02/21 02:07:40;;;;;;;1.67;0.50;;;;;;;;;;5140607;27;20043;-77
2022/02/21 02:10:08;;;;;;;4.25;0.75;;;;;;;;;;5141400;27;20166;-77
2022/02/21 02:12:34;;;;;;;2.17;0.73;;;;;;;;;;5140093;27;20098;-77
2022/02/21 02:15:01;;;;;;;1.25;0.47;;;;;;;;;;5139980;27;20070;-77
2022/02/21 02:17:29;;;;;;;2.22;0.60;;;;;;;;;;5139981;27;20401;-78
2022/02/21 02:19:55;;;;;;;1.17;0.30;;;;;;;;;;5139273;27;20086;-77
2022/02/21 02:22:24;;;;;;;1.02;0.40;;;;;;;;;;5140581;27;20078;-77
2022/02/21 02:24:52;;;;;;;1.58;0.52;;;;;;;;;;5141336;27;20438;-77
2022/02/21 02:27:19;;;;;;;7.82;0.80;;;;;;;;;;5141777;27;20117;-78
2022/02/21 02:29:47;;;;;;;2.38;1.00;;;;;;;;;;5140378;27;20057;-77
2022/02/21 02:32:14;;;;;;;1.40;0.40;;;;;;;;;;5139684;27;20498;-77
2022/02/21 02:34:42;;;;;;;0.75;0.40;;;;;;;;;;5141363;27;20131;-77
2022/02/21 02:37:09;;;;;;;1.50;0.50;;;;;;;;;;5141099;27;20074;-77
2022/02/21 02:39:37;;;;;;;3.35;0.50;;;;;;;;;;5140587;27;20118;-77
2022/02/21 02:42:05;;;;;;;1.90;0.40;;;;;;;;;;5139589;27;20082;-77
2022/02/21 02:44:31;;;;;;;1.98;0.50;;;;;;;;;;5139803;27;20077;-77
2022/02/21 02:46:58;;;;;;;1.45;0.32;;;;;;;;;;5138648;27;20494;-77
2022/02/21 02:49:24;;;;;;;0.25;0.20;;;;;;;;;;5138735;27;20126;-77
2022/02/21 02:51:51;;;;;;;1.50;0.40;;;;;;;;;;5137176;27;20134;-77
2022/02/21 02:54:18;;;;;;;1.33;0.40;;;;;;;;;;5137611;27;20126;-77
2022/02/21 02:56:47;;;;;;;1.63;0.43;;;;;;;;;;5137416;27;20450;-77
2022/02/21 02:59:14;;;;;;;3.08;0.73;;;;;;;;;;5141321;27;20040;-77
2022/02/21 03:01:40;;;;;;;1.13;0.52;;;;;;;;;;5140987;27;20070;-77
2022/02/21 03:04:07;;;;;;;10.20;0.82;;;;;;;;;;5143792;27;20077;-77
2022/02/21 03:06:34;;;;;;;0.30;0.22;;;;;;;;;;5143226;27;20088;-77
2022/02/21 03:09:00;;;;;;;0.65;0.30;;;;;;;;;;5138979;27;20122;-77
2022/02/21 03:11:27;;;;;;;1.88;0.60;;;;;;;;;;5138721;27;20070;-77
2022/02/21 03:13:56;;;;;;;0.47;0.28;;;;;;;;;;5139242;27;20071;-77
2022/02/21 03:16:22;;;;;;;2.05;0.50;;;;;;;;;;5138477;27;20117;-77
2022/02/21 03:18:49;;;;;;;3.10;0.52;;;;;;;;;;5140362;27;20071;-77
2022/02/21 03:21:15;;;;;;;2.40;0.47;;;;;;;;;;5138998;27;20086;-77
2022/02/21 03:23:42;;;;;;;1.05;0.40;;;;;;;;;;5140786;27;20066;-77
2022/02/21 03:26:08;;;;;;;2.15;0.85;;;;;;;;;;5140239;27;20039;-77
2022/02/21 03:28:35;;;;;;;2.15;0.50;;;;;;;;;;5140994;27;20077;-77
2022/02/21 03:31:03;;;;;;;0.40;0.15;;;;;;;;;;5141243;27;20063;-77
2022/02/21 03:33:29;;;;;;;1.40;0.50;;;;;;;;;;5140128;27;20064;-77
2022/02/21 03:35:56;;;;;;;0.30;0.30;;;;;;;;;;5140543;27;20079;-77
2022/02/21 03:38:22;;;;;;;0.85;0.30;;;;;;;;;;5139287;27;20471;-78
2022/02/21 03:40:51;;;;;;;1.85;0.60;;;;;;;;;;5141183;27;20085;-77
2022/02/21 03:43:18;;;;;;;0.57;0.30;;;;;;;;;;5139540;27;20444;-77
2022/02/21 03:45:44;;;;;;;0.63;0.30;;;;;;;;;;5140498;27;20077;-77
2022/02/21 03:48:13;;;;;;;3.05;0.80;;;;;;;;;;5139563;27;20121;-77
2022/02/21 03:50:40;;;;;;;0.38;0.28;;;;;;;;;;5141152;27;20106;-77
2022/02/21 03:53:06;;;;;;;1.25;0.38;;;;;;;;;;5139513;27;20071;-78
2022/02/21 03:55:33;;;;;;;1.08;0.40;;;;;;;;;;5140336;27;20071;-77
2022/02/21 03:58:00;;;;;;;1.77;0.52;;;;;;;;;;5140437;27;20503;-77
2022/02/21 04:00:26;;;;;;;3.78;0.43;;;;;;;;;;5139354;27;20071;-77
2022/02/21 04:02:53;;;;;;;0.22;0.10;;;;;;;;;;5138418;27;20142;-77
2022/02/21 04:05:21;;;;;;;0.70;0.68;;;;;;;;;;5137088;27;20126;-77
2022/02/21 04:07:48;;;;;;;1.13;0.38;;;;;;;;;;5138733;27;20052;-77
2022/02/21 04:10:18;;;;;;;2.42;0.50;;;;;;;;;;5137822;28;20095;-77
2022/02/21 04:12:44;;;;;;;1.25;0.43;;;;;;;;;;5137072;28;20039;-77
2022/02/21 04:15:11;;;;;;;1.35;0.40;;;;;;;;;;5138115;28;20082;-77
2022/02/21 04:17:42;;;;;;;1.10;0.32;;;;;;;;;;5139401;28;20433;-77
2022/02/21 04:20:10;;;;;;;0.32;0.30;;;;;;;;;;5138064;28;20079;-77
2022/02/21 04:22:38;;;;;;;1.38;0.32;;;;;;;;;;5139035;28;20126;-77
2022/02/21 04:25:06;;;;;;;1.80;0.10;;;;;;;;;;5138046;28;20396;-76
2022/02/21 04:27:40;;;;;;;0.57;0.17;;;;;;;;;;5137013;28;20043;-76
2022/02/21 04:30:07;;;;;;;1.75;0.38;;;;;;;;;;5136274;28;20411;-77
2022/02/21 04:32:36;;;;;;;1.40;0.20;;;;;;;;;;5137356;28;20082;-77
2022/02/21 04:35:03;;;;;;;1.65;0.30;;;;;;;;;;5137675;28;20082;-77
2022/02/21 04:37:30;;;;;;;0.68;0.20;;;;;;;;;;5136736;28;20428;-77
2022/02/21 04:39:58;;;;;;;3.95;1.00;;;;;;;;;;5137750;28;20122;-77
2022/02/21 04:42:24;;;;;;;1.27;0.30;;;;;;;;;;5137529;28;20039;-77
2022/02/21 04:44:51;;;;;;;0.65;0.20;;;;;;;;;;5138472;28;20067;-77
2022/02/21 04:47:18;;;;;;;2.28;0.40;;;;;;;;;;5136680;28;20053;-77
2022/02/21 04:49:44;;;;;;;1.02;0.30;;;;;;;;;;5136324;28;20070;-77
2022/02/21 04:52:11;;;;;;;1.20;0.30;;;;;;;;;;5137302;28;20122;-77
2022/02/21 04:54:37;;;;;;;1.30;0.43;;;;;;;;;;5137700;28;20130;-77
2022/02/21 04:57:06;;;;;;;1.20;0.45;;;;;;;;;;5139421;28;20074;-77
2022/02/21 04:59:32;;;;;;;0.90;0.32;;;;;;;;;;5138321;28;20070;-77
2022/02/21 05:02:00;;;;;;;0.88;0.20;;;;;;;;;;5138936;28;20078;-77
2022/02/21 05:04:26;;;;;;;1.45;0.47;;;;;;;;;;5138513;28;20043;-77
2022/02/21 05:06:53;;;;;;;3.67;0.60;;;;;;;;;;5136708;28;20043;-77
2022/02/21 05:09:20;;;;;;;2.80;0.50;;;;;;;;;;5137189;28;20082;-77
2022/02/21 05:11:46;;;;;;;1.50;0.38;;;;;;;;;;5138553;28;20082;-77
2022/02/21 05:14:14;;;;;;;1.60;0.57;;;;;;;;;;5137954;28;20078;-77
2022/02/21 05:16:41;;;;;;;0.28;0.25;;;;;;;;;;5139482;27;20082;-77
2022/02/21 05:19:07;;;;;;;0.35;0.10;;;;;;;;;;5140200;27;20516;-77
2022/02/21 05:21:34;;;;;;;0.20;0.10;;;;;;;;;;5138808;27;20090;-77
2022/02/21 05:24:00;;;;;;;0.88;0.10;;;;;;;;;;5139119;27;20088;-77
2022/02/21 05:26:27;;;;;;;0.40;0.20;;;;;;;;;;5139161;27;20071;-76
2022/02/21 05:28:53;;;;;;;0.17;0.10;;;;;;;;;;5139550;27;20071;-77
2022/02/21 05:31:22;;;;;;;0.98;0.35;;;;;;;;;;5137524;27;20074;-77
2022/02/21 05:33:48;;;;;;;2.10;0.68;;;;;;;;;;5138701;27;20122;-76
2022/02/21 05:36:15;;;;;;;0.77;0.50;;;;;;;;;;5138537;27;20067;-76
2022/02/21 05:38:44;;;;;;;1.00;0.52;;;;;;;;;;5137514;27;20479;-77
2022/02/21 05:41:10;;;;;;;3.35;0.75;;;;;;;;;;5137527;27;20611;-76
2022/02/21 05:43:37;;;;;;;0.98;0.32;;;;;;;;;;5137390;27;20071;-76
2022/02/21 05:46:10;;;;;;;0.98;0.40;;;;;;;;;;5136104;27;20081;-79
2022/02/21 05:48:38;;;;;;;2.25;0.82;;;;;;;;;;5137265;27;20491;-76
2022/02/21 05:51:04;;;;;;;2.35;1.00;;;;;;;;;;5137896;27;20043;-77
2022/02/21 05:53:31;;;;;;;2.83;1.00;;;;;;;;;;5138121;27;20130;-76
2022/02/21 05:55:57;;;;;;;4.93;0.50;;;;;;;;;;5136805;27;20070;-76
2022/02/21 05:58:24;;;;;;;1.42;0.25;;;;;;;;;;5137917;27;20070;-76
2022/02/21 06:00:50;;;;;;;3.60;0.50;;;;;;;;;;5136917;27;20474;-77
2022/02/21 06:03:17;;;;;;;0.98;0.40;;;;;;;;;;5137477;27;20466;-77
2022/02/21 06:05:47;;;;;;;0.63;0.28;;;;;;;;;;5137687;27;20043;-77
2022/02/21 06:08:13;;;;;;;3.10;0.50;;;;;;;;;;5137968;27;20092;-77
2022/02/21 06:10:40;;;;;;;1.20;0.40;;;;;;;;;;5138129;27;20206;-77
2022/02/21 06:13:06;;;;;;;0.80;0.40;;;;;;;;;;5138112;27;20126;-76
2022/02/21 06:15:33;;;;;;;0.50;0.28;;;;;;;;;;5137721;27;20473;-77
2022/02/21 06:18:00;;;;;;;0.77;0.45;;;;;;;;;;5137565;27;20078;-76
2022/02/21 06:20:26;;;;;;;0.50;0.30;;;;;;;;;;5135794;27;20051;-76
2022/02/21 06:22:54;;;;;;;2.45;0.40;;;;;;;;;;5137438;27;20126;-76
2022/02/21 06:25:21;;;;;;;0.98;0.73;;;;;;;;;;5136430;27;20090;-76
2022/02/21 06:27:49;;;;;;;2.40;0.30;;;;;;;;;;5137514;27;20042;-76
2022/02/21 06:30:16;;;;;;;0.73;0.30;;;;;;;;;;5137292;27;20122;-77
2022/02/21 06:32:43;;;;;;;3.90;1.33;;;;;;;;;;5136041;27;20102;-76
2022/02/21 06:35:10;;;;;;;5.40;0.60;;;;;;;;;;5137160;27;20075;-76
2022/02/21 06:37:41;;;;;;;3.58;0.63;;;;;;;;;;5135892;27;20410;-76
2022/02/21 06:40:10;;;;;;;0.60;0.50;;;;;;;;;;5137018;27;20131;-76
2022/02/21 06:42:38;;;;;;;1.08;0.60;;;;;;;;;;5136297;27;20121;-76
2022/02/21 06:45:05;;;;;;;2.10;0.50;;;;;;;;;;5136615;27;20066;-76
2022/02/21 06:47:32;;;;;;;1.83;0.50;;;;;;;;;;5135795;27;20130;-76
2022/02/21 06:49:58;;;;;;;0.75;0.43;;;;;;;;;;5135765;27;20122;-76
2022/02/21 06:52:25;;;;;;;2.17;0.52;;;;;;;;;;5136378;27;20130;-76
2022/02/21 06:54:52;;;;;;;4.10;1.00;;;;;;;;;;5136757;27;20146;-76
2022/02/21 06:57:20;;;;;;;1.83;0.70;;;;;;;;;;5135991;27;20035;-76
2022/02/21 06:59:47;;;;;;;2.40;0.95;;;;;;;;;;5136660;27;20078;-76
2022/02/21 07:02:13;;;;;;;1.45;0.80;;;;;;;;;;5136279;27;20131;-76
2022/02/21 07:04:40;;;;;;;2.20;0.60;;;;;;;;;;5136493;27;20405;-76
2022/02/21 07:07:06;;;;;;;1.30;0.70;;;;;;;;;;5135322;27;20515;-76
2022/02/21 07:09:33;;;;;;;5.22;0.85;;;;;;;;;;5135233;27;20597;-76
2022/02/21 07:11:59;;;;;;;6.03;1.33;;;;;;;;;;5136299;27;20440;-76
2022/02/21 07:14:27;;;;;;;1.50;0.70;;;;;;;;;;5135407;27;20479;-76
2022/02/21 07:16:54;;;;;;;2.72;0.95;;;;;;;;;;5136222;27;20081;-76
2022/02/21 07:19:21;;;;;;;4.82;1.00;;;;;;;;;;5135170;27;20039;-77
2022/02/21 07:21:48;;;;;;;4.00;0.80;;;;;;;;;;5136292;27;20227;-77
2022/02/21 07:24:15;;;;;;;2.65;1.00;;;;;;;;;;5136207;27;20067;-76
2022/02/21 07:26:42;;;;;;;2.22;1.00;;;;;;;;;;5135047;27;20491;-76
2022/02/21 07:29:09;;;;;;;3.35;0.90;;;;;;;;;;5136087;27;20084;-76
2022/02/21 07:31:37;;;;;;;1.40;0.65;;;;;;;;;;5135117;27;20079;-76
2022/02/21 07:34:03;;;;;;;4.38;0.52;;;;;;;;;;5134991;27;20134;-76
2022/02/21 07:36:31;;;;;;;2.00;0.80;;;;;;;;;;5135722;27;20070;-76
2022/02/21 07:38:58;;;;;;;1.98;0.85;;;;;;;;;;5135325;27;20039;-76
2022/02/21 07:41:24;;;;;;;2.95;0.82;;;;;;;;;;5135634;27;20070;-76
2022/02/21 07:43:51;;;;;;;3.95;0.70;;;;;;;;;;5134800;27;20489;-76
2022/02/21 07:46:17;;;;;;;4.05;1.83;;;;;;;;;;5135656;27;20081;-77
2022/02/21 07:48:45;;;;;;;3.85;1.00;;;;;;;;;;5134598;27;20070;-76
2022/02/21 07:51:12;;;;;;;3.55;0.70;;;;;;;;;;5135787;27;20043;-76
2022/02/21 07:53:38;;;;;;;2.88;0.90;;;;;;;;;;5135642;27;20039;-76
2022/02/21 07:56:05;;;;;;;5.35;0.95;;;;;;;;;;5135841;27;20440;-76
2022/02/21 07:58:32;;;;;;;2.10;0.70;;;;;;;;;;5135624;27;20118;-77
2022/02/21 08:00:58;;;;;;;2.10;0.75;;;;;;;;;;5134704;27;20121;-77
2022/02/21 08:03:25;;;;;;;5.10;1.02;;;;;;;;;;5135398;27;20421;-76
2022/02/21 08:05:55;;;;;;;4.38;0.73;;;;;;;;;;5135766;27;20125;-76
2022/02/21 08:08:21;;;;;;;1.58;0.75;;;;;;;;;;5135540;27;20036;-76
2022/02/21 08:10:48;;;;;;;3.45;0.95;;;;;;;;;;5135512;27;20081;-76
2022/02/21 08:13:14;;;;;;;3.22;1.00;;;;;;;;;;5134221;28;20522;-76
2022/02/21 08:15:41;;;;;;;2.08;0.63;;;;;;;;;;5135413;28;20122;-76
2022/02/21 08:18:08;;;;;;;3.88;1.30;;;;;;;;;;5135696;28;20081;-76
2022/02/21 08:20:34;;;;;;;2.72;0.80;;;;;;;;;;5133714;28;20086;-76
2022/02/21 08:23:02;;;;;;;4.38;0.80;;;;;;;;;;5135407;28;20458;-76
2022/02/21 08:25:29;;;;;;;5.28;0.77;;;;;;;;;;5135386;28;20073;-76
2022/02/21 08:27:55;;;;;;;2.55;0.93;;;;;;;;;;5135009;28;20043;-76
2022/02/21 08:30:23;;;;;;;3.60;0.73;;;;;;;;;;5135231;28;20075;-76
2022/02/21 08:32:50;;;;;;;1.65;0.80;;;;;;;;;;5134999;28;20079;-76
2022/02/21 08:35:17;;;;;;;4.05;1.30;;;;;;;;;;5134472;28;20078;-76
2022/02/21 08:37:44;;;;;;;3.88;0.80;;;;;;;;;;5134106;28;20518;-76
2022/02/21 08:40:14;;;;;;;3.60;0.90;;;;;;;;;;5134145;28;20472;-76
2022/02/21 08:42:41;;;;;;;3.33;0.88;;;;;;;;;;5134394;28;20074;-76
2022/02/21 08:45:10;;;;;;;1.92;0.60;;;;;;;;;;5135199;28;20122;-76
2022/02/21 08:47:37;;;;;;;2.75;0.90;;;;;;;;;;5135123;28;20086;-76
2022/02/21 08:50:05;;;;;;;4.28;0.93;;;;;;;;;;5134609;27;20085;-76
2022/02/21 08:52:32;;;;;;;3.55;0.80;;;;;;;;;;5138105;27;20431;-76
2022/02/21 08:54:59;;;;;;;2.58;0.98;;;;;;;;;;5139148;27;20071;-76
2022/02/21 08:57:27;;;;;;;5.65;0.80;;;;;;;;;;5139033;27;20096;-76
2022/02/21 08:59:53;;;;;;;5.47;0.93;;;;;;;;;;5138228;27;20126;-76
2022/02/21 09:02:20;;;;;;;1.73;0.70;;;;;;;;;;5138939;27;20127;-76
2022/02/21 09:04:46;;;;;;;3.58;1.58;;;;;;;;;;5138913;27;20438;-76
2022/02/21 09:07:13;;;;;;;6.40;1.08;;;;;;;;;;5137776;27;20129;-76
2022/02/21 09:09:39;;;;;;;5.72;2.83;;;;;;;;;;5138892;27;20073;-76
2022/02/21 09:12:07;;;;;;;5.90;0.95;;;;;;;;;;5137570;27;20483;-76
2022/02/21 09:14:34;;;;;;;5.53;0.80;;;;;;;;;;5138610;27;20130;-76
2022/02/21 09:17:01;;;;;;;3.30;1.15;;;;;;;;;;5137577;27;20126;-76
2022/02/21 09:19:27;;;;;;;5.80;1.73;;;;;;;;;;5137586;27;20439;-76
2022/02/21 09:21:54;;;;;;;3.25;1.13;;;;;;;;;;5137042;27;20075;-76
2022/02/21 09:24:20;;;;;;;5.57;1.38;;;;;;;;;;5138249;27;20126;-77
2022/02/21 09:26:47;;;;;;;4.82;1.10;;;;;;;;;;5138395;27;20131;-76
2022/02/21 09:29:13;;;;;;;3.25;1.65;;;;;;;;;;5138193;27;20126;-76
2022/02/21 09:31:41;;;;;;;1.73;0.60;;;;;;;;;;5138585;27;20069;-76
2022/02/21 09:34:08;;;;;;;5.85;1.08;;;;;;;;;;5137126;27;20538;-76
2022/02/21 09:36:35;;;;;;;6.00;1.05;;;;;;;;;;5138316;27;20039;-76
2022/02/21 09:39:02;;;;;;;3.35;0.77;;;;;;;;;;5138256;27;20035;-76
2022/02/21 09:41:29;;;;;;;2.42;0.80;;;;;;;;;;5137872;27;20170;-76
2022/02/21 09:43:55;;;;;;;2.05;0.88;;;;;;;;;;5137532;27;20093;-76
2022/02/21 09:46:26;;;;;;;4.30;1.42;;;;;;;;;;5137928;27;20129;-76
2022/02/21 09:48:54;;;;;;;2.30;0.82;;;;;;;;;;5138061;27;20423;-76
2022/02/21 09:51:22;;;;;;;8.00;1.67;;;;;;;;;;5137929;27;20061;-76
2022/02/21 09:53:48;;;;;;;6.65;1.38;;;;;;;;;;5136685;27;20130;-76
2022/02/21 09:56:15;;;;;;;5.15;1.30;;;;;;;;;;5137586;27;20126;-76
2022/02/21 09:58:41;;;;;;;3.50;1.02;;;;;;;;;;5137035;27;20125;-76
2022/02/21 10:01:08;;;;;;;3.78;1.55;;;;;;;;;;5136749;27;20039;-76
2022/02/21 10:03:42;;;;;;;3.38;1.17;;;;;;;;;;5137359;27;20074;-76
2022/02/21 10:06:21;;;;;;;6.88;1.67;;;;;;;;;;5136622;27;20096;-76
2022/02/21 10:08:54;;;;;;;3.15;0.93;;;;;;;;;;5137641;27;20043;-76
2022/02/21 10:11:25;;;;;;;3.05;0.85;;;;;;;;;;5137607;27;20134;-76
2022/02/21 10:13:55;;;;;;;3.65;0.73;;;;;;;;;;5136382;27;20039;-76
2022/02/21 10:16:21;;;;;;;4.18;0.77;;;;;;;;;;5136736;27;20127;-76
2022/02/21 10:18:48;;;;;;;5.60;1.08;;;;;;;;;;5137507;27;20122;-76
2022/02/21 10:21:14;;;;;;;3.78;1.38;;;;;;;;;;5135993;27;20138;-76
2022/02/21 10:23:44;;;;;;;4.32;0.98;;;;;;;;;;5136196;27;20519;-76
2022/02/21 10:26:11;;;;;;;6.80;1.17;;;;;;;;;;5137138;27;20130;-76
2022/02/21 10:28:38;;;;;;;3.92;1.40;;;;;;;;;;5137410;27;20122;-76
2022/02/21 10:31:13;;;;;;;9.75;1.48;;;;;;;;;;5137396;27;20130;-76
2022/02/21 10:33:41;;;;;;;6.15;1.98;;;;;;;;;;5135899;27;20092;-76
2022/02/21 10:36:32;;;;;;;4.80;1.90;;;;;;;;;;5136873;27;20126;-76
2022/02/21 10:39:01;;;;;;;3.33;0.90;;;;;;;;;;5136171;27;20077;-76
2022/02/21 10:41:42;;;;;;;3.75;1.52;;;;;;;;;;5137424;27;20122;-76
2022/02/21 10:44:17;;;;;;;3.35;1.05;;;;;;;;;;5136025;27;20130;-76
2022/02/21 10:46:44;;;;;;;1.88;0.82;;;;;;;;;;5136741;27;20074;-76
2022/02/21 10:49:12;;;;;;;5.68;1.38;;;;;;;;;;5135781;27;20468;-76
2022/02/21 10:51:38;;;;;;;3.85;1.02;;;;;;;;;;5136953;27;20039;-76
2022/02/21 10:54:10;;;;;;;4.40;1.48;;;;;;;;;;5135846;27;20125;-76
2022/02/21 10:56:44;;;;;;;3.90;0.90;;;;;;;;;;5137094;27;20035;-78
2022/02/21 10:59:20;;;;;;;3.00;0.80;;;;;;;;;;5143504;27;20066;-78
2022/02/21 11:01:47;;;;;;;2.17;0.85;;;;;;;;;;5142110;27;20091;-77
2022/02/21 11:04:14;;;;;;;2.10;0.85;;;;;;;;;;5137707;27;20183;-77
2022/02/21 11:06:41;;;;;;;4.35;0.98;;;;;;;;;;5136672;27;20070;-77
2022/02/21 11:09:10;;;;;;;3.95;1.15;;;;;;;;;;5136556;27;20081;-79
2022/02/21 11:11:47;;;;;;;7.30;1.40;;;;;;;;;;5137019;27;20043;-77
2022/02/21 11:14:17;;;;;;;3.53;1.13;;;;;;;;;;5135631;27;20130;-77
2022/02/21 11:16:46;;;;;;;5.47;1.10;;;;;;;;;;5136166;27;20133;-77
2022/02/21 11:19:14;;;;;;;6.43;0.93;;;;;;;;;;5135755;27;20043;-77
2022/02/21 11:21:48;;;;;;;6.93;1.55;;;;;;;;;;5134355;27;20554;-77
2022/02/21 11:24:26;;;;;;;3.60;1.17;;;;;;;;;;5135280;27;20487;-77
2022/02/21 11:26:59;;;;;;;5.55;1.27;;;;;;;;;;5136033;27;20093;-77
2022/02/21 11:29:30;;;;;;;6.88;1.25;;;;;;;;;;5136396;27;20074;-77
2022/02/21 11:31:57;;;;;;;3.95;0.63;;;;;;;;;;5135721;27;20523;-76
2022/02/21 11:34:30;;;;;;;4.57;0.85;;;;;;;;;;5136379;27;20130;-76
2022/02/21 11:37:00;;;;;;;4.53;1.20;;;;;;;;;;5136515;27;20092;-77
2022/02/21 11:39:32;;;;;;;3.78;0.60;;;;;;;;;;5135161;27;20556;-77
2022/02/21 11:42:07;;;;;;;5.90;0.93;;;;;;;;;;5135632;27;20503;-77
2022/02/21 11:44:45;;;;;;;2.10;0.85;;;;;;;;;;5136192;27;20200;-77
2022/02/21 11:47:31;;;;;;;1.60;0.73;;;;;;;;;;5135987;27;20098;-77
2022/02/21 11:49:58;;;;;;;4.95;1.02;;;;;;;;;;5136643;27;20094;-77
2022/02/21 11:52:30;;;;;;;6.75;1.15;;;;;;;;;;5136262;27;20077;-77
2022/02/21 11:54:58;;;;;;;7.78;1.13;;;;;;;;;;5136818;27;20126;-77
2022/02/21 11:57:29;;;;;;;2.50;0.80;;;;;;;;;;5137283;27;20127;-77
2022/02/21 11:59:56;;;;;;;6.03;0.90;;;;;;;;;;5137012;27;20043;-77
2022/02/21 12:02:22;;;;;;;8.82;1.50;;;;;;;;;;5135944;27;20039;-77
2022/02/21 12:04:56;;;;;;;7.07;1.33;;;;;;;;;;5137184;27;20126;-77
2022/02/21 12:07:27;;;;;;;5.00;1.33;;;;;;;;;;5136517;27;20043;-77
2022/02/21 12:10:25;;;;;;;6.38;1.25;;;;;;;;;;5136212;27;20134;-77
2022/02/21 12:13:02;;;;;;;7.72;1.17;;;;;;;;;;5136152;28;20479;-77
2022/02/21 12:15:31;;;;;;;5.20;0.85;;;;;;;;;;5136862;28;20042;-77
2022/02/21 12:18:43;;;;;;;6.78;1.00;;;;;;;;;;5135920;28;20039;-77
2022/02/21 12:21:11;;;;;;;2.85;1.20;;;;;;;;;;5135817;28;20047;-77
2022/02/21 12:23:39;;;;;;;8.13;1.10;;;;;;;;;;5136980;28;20122;-78
2022/02/21 12:26:17;;;;;;;6.47;1.55;;;;;;;;;;5140499;27;20039;-78
2022/02/21 12:28:44;;;;;;;6.82;1.50;;;;;;;;;;5141442;27;20071;-77
2022/02/21 12:31:24;;;;;;;3.42;1.33;;;;;;;;;;5141263;27;20167;-78
2022/02/21 12:33:55;;;;;;;7.88;1.67;;;;;;;;;;5141549;27;20047;-77
2022/02/21 12:36:22;;;;;;;5.95;1.58;;;;;;;;;;5139835;27;20482;-77
2022/02/21 12:38:51;;;;;;;6.03;0.98;;;;;;;;;;5140454;27;20039;-77
2022/02/21 12:41:19;;;;;;;4.78;1.23;;;;;;;;;;5140571;27;20050;-77
2022/02/21 12:43:50;;;;;;;4.28;1.02;;;;;;;;;;5140339;27;20074;-77
2022/02/21 12:46:18;;;;;;;4.35;1.20;;;;;;;;;;5141757;27;20078;-77
2022/02/21 12:48:45;;;;;;;4.70;1.15;;;;;;;;;;5141786;27;20046;-77
2022/02/21 12:51:26;;;;;;;7.00;1.65;;;;;;;;;;5141016;27;20070;-77
2022/02/21 12:54:04;;;;;;;9.27;1.77;;;;;;;;;;5142657;27;20078;-77
2022/02/21 12:56:43;;;;;;;3.17;0.88;;;;;;;;;;5139348;27;20431;-77
2022/02/21 12:59:11;;;;;;;6.65;1.25;;;;;;;;;;5138289;27;20117;-77
2022/02/21 13:01:37;;;;;;;8.98;2.10;;;;;;;;;;5137981;27;20039;-77
2022/02/21 13:04:06;;;;;;;3.15;0.90;;;;;;;;;;5138892;27;20070;-77
2022/02/21 13:06:33;;;;;;;3.03;1.17;;;;;;;;;;5138009;27;20122;-77
2022/02/21 13:09:00;;;;;;;5.50;2.65;;;;;;;;;;5138594;27;20397;-77
2022/02/21 13:11:28;;;;;;;10.45;1.73;;;;;;;;;;5138730;27;20122;-77
2022/02/21 13:13:58;;;;;;;3.88;1.63;;;;;;;;;;5138942;27;20138;-77
2022/02/21 13:16:25;;;;;;;6.28;1.67;;;;;;;;;;5137849;27;20610;-76
2022/02/21 13:18:54;;;;;;;5.97;1.80;;;;;;;;;;5138420;27;20039;-76
2022/02/21 13:21:29;;;;;;;7.68;1.50;;;;;;;;;;5138218;27;20054;-76
2022/02/21 13:23:55;;;;;;;5.85;1.35;;;;;;;;;;5139001;27;20092;-78
2022/02/21 13:26:22;;;;;;;5.32;1.13;;;;;;;;;;5141699;27;20126;-78
2022/02/21 13:28:49;;;;;;;6.45;1.40;;;;;;;;;;5140523;27;20043;-76
2022/02/21 13:31:17;;;;;;;6.25;1.98;;;;;;;;;;5140412;27;20122;-77
2022/02/21 13:33:46;;;;;;;2.25;0.93;;;;;;;;;;5140675;27;20125;-77
2022/02/21 13:36:13;;;;;;;3.00;0.95;;;;;;;;;;5137846;27;20074;-77
2022/02/21 13:38:39;;;;;;;5.47;1.20;;;;;;;;;;5138604;27;20421;-77
2022/02/21 13:41:06;;;;;;;6.70;1.38;;;;;;;;;;5138815;27;20538;-77
2022/02/21 13:43:32;;;;;;;3.58;0.93;;;;;;;;;;5138066;27;20130;-75
2022/02/21 13:45:59;;;;;;;4.95;1.15;;;;;;;;;;5138066;27;20075;-77
2022/02/21 13:48:28;;;;;;;7.32;1.33;;;;;;;;;;5138126;27;20071;-77
2022/02/21 13:50:56;;;;;;;6.20;1.27;;;;;;;;;;5138693;27;20131;-77
2022/02/21 13:53:34;;;;;;;6.82;1.60;;;;;;;;;;5138790;27;20081;-78
2022/02/21 13:56:03;;;;;;;3.80;1.00;;;;;;;;;;5140098;27;20042;-77
2022/02/21 13:58:32;;;;;;;4.47;1.42;;;;;;;;;;5140460;27;20070;-77
2022/02/21 14:01:07;;;;;;;5.25;1.40;;;;;;;;;;5140020;27;20039;-77
2022/02/21 14:03:39;;;;;;;5.07;1.33;;;;;;;;;;5140099;27;20066;-77
2022/02/21 14:06:07;;;;;;;4.45;0.77;;;;;;;;;;5140336;27;20130;-77
2022/02/21 14:08:39;;;;;;;5.28;1.40;;;;;;;;;;5140170;27;20047;-77
2022/02/21 14:11:06;;;;;;;6.68;1.20;;;;;;;;;;5139285;27;20503;-77
2022/02/21 14:13:33;;;;;;;5.45;0.98;;;;;;;;;;5139575;27;20070;-77
2022/02/21 14:16:00;;;;;;;9.05;1.20;;;;;;;;;;5139826;27;20035;-77
2022/02/21 14:18:26;;;;;;;7.43;1.70;;;;;;;;;;5139495;27;20082;-77
2022/02/21 14:20:54;;;;;;;6.57;1.33;;;;;;;;;;5138122;27;20083;-77
2022/02/21 14:23:21;;;;;;;3.50;1.10;;;;;;;;;;5139687;27;20071;-77
2022/02/21 14:25:49;;;;;;;3.33;1.02;;;;;;;;;;5138169;27;20486;-75
2022/02/21 14:28:16;;;;;;;7.35;1.00;;;;;;;;;;5136256;27;20482;-75
2022/02/21 14:30:43;;;;;;;3.80;1.33;;;;;;;;;;5136166;27;20494;-75
2022/02/21 14:33:09;;;;;;;4.22;1.20;;;;;;;;;;5137231;27;20122;-75
2022/02/21 14:35:37;;;;;;;5.47;1.08;;;;;;;;;;5135943;27;20130;-75
2022/02/21 14:38:06;;;;;;;4.95;0.93;;;;;;;;;;5136399;27;20429;-75
2022/02/21 14:40:32;;;;;;;6.00;1.38;;;;;;;;;;5136840;27;20117;-75
2022/02/21 14:42:59;;;;;;;4.13;1.25;;;;;;;;;;5137070;27;20077;-75
2022/02/21 14:45:25;;;;;;;6.40;1.10;;;;;;;;;;5136531;27;20097;-78
2022/02/21 14:47:52;;;;;;;5.75;2.47;;;;;;;;;;5139776;27;20075;-77